Time;durP1;ratioP1;P1;durP2;ratioP2;P2;SDS_P1;SDS_P2;PMS_P1;PMS_P2;Temp;Humidity;BMP_temperature;BMP_pressure;BME280_temperature;BME280_humidity;BME280_pressure;Samples;Min_cycle;Max_cycle;Signal;HPM_P1;HPM_P2
2022/01/30 00:01:49;;;;;;;12.07;8.40;;;;;;;-143.84;66.36;45163.31;5044810;28;20454;-73
2022/01/30 00:04:16;;;;;;;20.20;11.43;;;;;;;-143.84;66.55;45146.19;5056595;28;20915;-74
2022/01/30 00:06:44;;;;;;;16.33;10.60;;;;;;;-143.84;66.18;45153.81;5049104;28;20456;-73
2022/01/30 00:09:17;;;;;;;16.30;9.93;;;;;;;-143.84;66.30;45155.69;5047051;28;20488;-75
2022/01/30 00:11:48;;;;;;;15.07;9.87;;;;;;;-143.84;66.38;45167.13;5036520;28;20555;-75
2022/01/30 00:14:18;;;;;;;14.30;8.17;;;;;;;-143.84;66.87;45163.31;5039757;28;20540;-75
2022/01/30 00:16:55;;;;;;;14.47;7.73;;;;;;;-143.84;67.13;45157.59;5038569;28;20460;-73
2022/01/30 00:19:27;;;;;;;12.40;8.20;;;;;;;-143.84;66.81;45151.91;5055235;28;20479;-73
2022/01/30 00:22:14;;;;;;;12.13;8.57;;;;;;;-143.84;66.84;45159.50;5056140;28;20570;-73
2022/01/30 00:24:48;;;;;;;11.80;7.43;;;;;;;-143.84;67.11;45161.41;5048909;28;20538;-74
2022/01/30 00:27:19;;;;;;;14.50;8.70;;;;;;;-143.84;66.62;45123.34;5042771;28;20472;-72
2022/01/30 00:29:47;;;;;;;11.00;8.60;;;;;;;-143.84;67.22;45144.28;5039348;28;20980;-73
2022/01/30 00:32:16;;;;;;;13.20;8.70;;;;;;;-143.84;66.98;45163.31;5039280;28;20461;-72
2022/01/30 00:34:43;;;;;;;10.50;7.80;;;;;;;-143.84;67.04;45167.13;5033065;28;20827;-72
2022/01/30 00:37:10;;;;;;;12.70;8.60;;;;;;;-143.84;66.80;45151.91;5035833;28;20477;-72
2022/01/30 00:39:37;;;;;;;11.77;6.70;;;;;;;-143.84;67.08;45140.47;5042242;28;20489;-73
2022/01/30 00:42:05;;;;;;;10.70;7.10;;;;;;;-143.84;66.90;45150.00;5048615;28;20722;-77
2022/01/30 00:44:33;;;;;;;11.60;8.60;;;;;;;-143.84;67.26;45159.50;5039432;28;20813;-77
2022/01/30 00:47:02;;;;;;;10.30;8.23;;;;;;;-143.84;67.26;45136.66;5036592;28;20486;-74
2022/01/30 00:49:31;;;;;;;13.03;8.13;;;;;;;-143.84;67.43;45165.22;5052753;28;20845;-73
2022/01/30 00:51:58;;;;;;;9.50;7.20;;;;;;;-143.84;67.04;45178.56;5056546;28;20455;-74
2022/01/30 00:54:25;;;;;;;11.03;8.10;;;;;;;-143.84;67.24;45146.19;5053292;28;20454;-73
2022/01/30 00:56:52;;;;;;;10.63;8.13;;;;;;;-143.84;67.58;45170.94;5042878;28;20485;-74
2022/01/30 00:59:19;;;;;;;8.20;7.20;;;;;;;-143.84;67.55;45157.59;5057064;28;20489;-73
2022/01/30 01:01:48;;;;;;;10.40;7.80;;;;;;;-143.84;67.57;45174.75;5041320;28;20443;-73
2022/01/30 01:04:15;;;;;;;13.70;8.67;;;;;;;-143.84;67.55;45167.13;5047722;28;20861;-73
2022/01/30 01:06:48;;;;;;;12.37;8.67;;;;;;;-143.84;68.01;45153.81;5038237;28;20457;-72
2022/01/30 01:09:17;;;;;;;18.60;8.67;;;;;;;-143.84;68.09;45150.00;5052630;28;20466;-72
2022/01/30 01:25:47;;;;;;;13.93;9.00;;;;;;;-143.84;70.06;45159.50;5106082;28;20446;-75
2022/01/30 01:28:14;;;;;;;12.93;9.60;;;;;;;-143.84;70.14;45146.19;5104247;28;20512;-73
2022/01/30 01:30:43;;;;;;;12.47;8.73;;;;;;;-143.84;70.08;45188.06;5109078;28;20563;-73
2022/01/30 01:33:10;;;;;;;11.50;8.77;;;;;;;-143.84;70.53;45170.94;5108172;28;20478;-75
2022/01/30 01:35:37;;;;;;;12.13;8.20;;;;;;;-143.84;70.72;45188.06;5105971;28;20804;-75
2022/01/30 01:38:10;;;;;;;14.03;9.57;;;;;;;-143.84;70.93;45186.16;5105700;28;20459;-75
2022/01/30 01:40:37;;;;;;;18.87;9.30;;;;;;;-143.84;70.85;45163.31;5105656;28;20453;-75
2022/01/30 01:43:04;;;;;;;11.47;8.33;;;;;;;-143.84;71.05;45174.75;5105801;28;20447;-77
2022/01/30 01:45:35;;;;;;;12.77;9.23;;;;;;;-143.84;70.82;45148.09;5105707;28;20446;-77
2022/01/30 01:48:10;;;;;;;11.97;8.73;;;;;;;-143.84;71.05;45176.66;5106842;28;20446;-74
2022/01/30 01:50:40;;;;;;;10.10;7.37;;;;;;;-143.84;71.13;45170.94;5107188;28;20455;-74
2022/01/30 01:53:09;;;;;;;11.40;8.00;;;;;;;-143.84;71.08;45150.00;5108546;28;20610;-74
2022/01/30 01:55:36;;;;;;;10.23;7.90;;;;;;;-143.84;70.83;45140.47;5105449;28;20536;-76
2022/01/30 01:58:04;;;;;;;13.10;8.10;;;;;;;-143.84;70.94;45174.75;5105571;28;20459;-73
2022/01/30 02:00:31;;;;;;;12.07;7.67;;;;;;;-143.84;70.77;45150.00;5107687;28;20440;-74
2022/01/30 02:02:58;;;;;;;10.00;8.20;;;;;;;-143.84;70.88;45169.03;5108659;28;20446;-75
2022/01/30 02:05:29;;;;;;;16.17;8.80;;;;;;;-143.84;70.87;45205.22;5104872;28;20451;-70
2022/01/30 02:10:47;;;;;;;11.27;7.87;;;;;;;-143.84;70.66;45172.84;5098702;28;20995;-71
2022/01/30 02:13:43;;;;;;;14.17;7.10;;;;;;;-143.84;70.61;45138.56;5107671;28;20487;-71
2022/01/30 02:24:39;;;;;;;13.10;7.87;;;;;;;-143.84;70.61;45148.09;5097457;28;20428;-72
2022/01/30 02:27:07;;;;;;;10.83;8.00;;;;;;;-143.84;70.43;45165.22;5093337;28;20940;-72
2022/01/30 02:29:34;;;;;;;11.53;8.00;;;;;;;-143.84;70.68;45167.13;5094449;28;20447;-72
2022/01/30 02:32:02;;;;;;;14.40;7.83;;;;;;;-143.84;70.49;45151.91;5093643;28;21019;-72
2022/01/30 02:34:30;;;;;;;12.37;8.50;;;;;;;-143.84;70.62;45186.16;5092783;28;21094;-73
2022/01/30 02:36:59;;;;;;;14.33;8.13;;;;;;;-143.84;70.68;45159.50;5093341;28;21293;-71
2022/01/30 02:39:27;;;;;;;11.97;7.90;;;;;;;-143.84;70.73;45191.88;5093486;28;20828;-72
2022/01/30 02:41:56;;;;;;;13.10;8.07;;;;;;;-143.84;71.03;45178.56;5093958;28;20451;-72
2022/01/30 02:44:28;;;;;;;9.50;7.30;;;;;;;-143.84;71.05;45182.38;5093750;28;20499;-72
2022/01/30 02:46:59;;;;;;;12.50;8.77;;;;;;;-143.84;71.18;45159.50;5093987;28;20818;-72
2022/01/30 02:49:43;;;;;;;12.93;8.77;;;;;;;-143.84;71.13;45178.56;5093658;28;20444;-72
2022/01/30 02:52:12;;;;;;;10.47;6.97;;;;;;;-143.84;71.14;45157.59;5089808;28;20853;-72
2022/01/30 02:54:40;;;;;;;12.80;8.60;;;;;;;-143.84;71.13;45148.09;5093926;28;21023;-72
2022/01/30 02:57:09;;;;;;;13.20;7.40;;;;;;;-143.84;71.19;45155.69;5093849;28;20443;-72
2022/01/30 02:59:37;;;;;;;9.70;7.50;;;;;;;-143.84;70.91;45125.22;5094084;28;20539;-72
2022/01/30 03:02:05;;;;;;;12.77;8.20;;;;;;;-143.84;70.93;45176.66;5093845;28;20444;-72
2022/01/30 03:04:32;;;;;;;10.30;7.10;;;;;;;-143.84;71.10;45155.69;5094393;28;20436;-72
2022/01/30 03:07:00;;;;;;;10.40;7.57;;;;;;;-143.84;71.03;45174.75;5093551;28;20513;-71
2022/01/30 03:09:27;;;;;;;11.67;7.80;;;;;;;-143.84;70.60;45199.50;5093348;28;20440;-71
2022/01/30 03:11:54;;;;;;;9.73;7.73;;;;;;;-143.84;70.50;45193.78;5093139;28;20443;-73
2022/01/30 03:14:23;;;;;;;10.80;7.70;;;;;;;-143.84;70.73;45167.13;5093019;28;20988;-72
2022/01/30 03:16:50;;;;;;;14.80;9.03;;;;;;;-143.84;70.37;45169.03;5093021;28;20452;-72
2022/01/30 03:19:17;;;;;;;11.03;7.43;;;;;;;-143.84;70.23;45155.69;5093187;28;20451;-72
2022/01/30 03:21:44;;;;;;;12.20;8.17;;;;;;;-143.84;70.17;45178.56;5092975;28;20831;-72
2022/01/30 03:24:12;;;;;;;10.00;7.70;;;;;;;-143.84;70.32;45176.66;5090616;28;20513;-72
2022/01/30 03:26:40;;;;;;;11.90;8.43;;;;;;;-143.84;70.12;45193.78;5092510;28;20454;-72
2022/01/30 03:29:08;;;;;;;9.17;7.23;;;;;;;-143.84;69.99;45163.31;5093076;28;20475;-73
2022/01/30 03:31:42;;;;;;;9.77;7.03;;;;;;;-143.84;69.85;45163.31;5092872;28;20444;-72
2022/01/30 03:34:11;;;;;;;20.10;7.43;;;;;;;-143.84;69.90;45169.03;5092870;28;20501;-73
2022/01/30 03:36:38;;;;;;;10.47;6.90;;;;;;;-143.84;69.46;45167.13;5091453;28;20520;-72
2022/01/30 03:39:06;;;;;;;9.60;7.43;;;;;;;-143.84;69.57;45170.94;5091242;28;20503;-72
2022/01/30 03:41:34;;;;;;;10.70;8.70;;;;;;;-143.84;69.32;45161.41;5090933;28;20459;-72
2022/01/30 03:44:01;;;;;;;13.20;8.20;;;;;;;-143.84;69.09;45159.50;5092470;28;20460;-72
2022/01/30 03:46:28;;;;;;;11.40;7.90;;;;;;;-143.84;68.88;45169.03;5092403;28;20854;-72
2022/01/30 03:48:56;;;;;;;14.27;8.90;;;;;;;-143.84;69.09;45161.41;5092144;28;20528;-73
2022/01/30 03:51:24;;;;;;;10.23;8.10;;;;;;;-143.84;68.99;45186.16;5092517;28;20458;-72
2022/01/30 03:53:51;;;;;;;16.20;8.90;;;;;;;-143.84;68.83;45178.56;5091906;28;20537;-71
2022/01/30 03:56:18;;;;;;;10.27;7.37;;;;;;;-143.84;68.83;45178.56;5091893;28;20489;-72
2022/01/30 03:58:46;;;;;;;11.40;8.03;;;;;;;-143.84;68.79;45150.00;5091500;28;20439;-72
2022/01/30 04:01:13;;;;;;;11.77;7.47;;;;;;;-143.84;68.58;45180.47;5088627;28;20448;-73
2022/01/30 04:03:40;;;;;;;15.80;8.43;;;;;;;-143.84;68.54;45178.56;5090524;28;20451;-72
2022/01/30 04:06:12;;;;;;;15.40;7.10;;;;;;;-143.84;68.38;45161.41;5089833;28;20463;-72
2022/01/30 04:08:40;;;;;;;12.27;8.27;;;;;;;-143.84;68.49;45193.78;5089896;28;20452;-72
2022/01/30 04:11:08;;;;;;;10.73;7.50;;;;;;;-143.84;68.49;45165.22;5089671;28;21045;-72
2022/01/30 04:13:35;;;;;;;12.57;8.80;;;;;;;-143.84;68.52;45172.84;5089727;28;20495;-72
2022/01/30 04:16:03;;;;;;;11.33;7.50;;;;;;;-143.84;68.64;45174.75;5089906;28;20983;-73
2022/01/30 04:18:30;;;;;;;9.93;6.83;;;;;;;-143.84;68.50;45186.16;5088937;28;20456;-73
2022/01/30 04:20:58;;;;;;;14.63;6.77;;;;;;;-143.84;68.59;45169.03;5088790;28;20775;-73
2022/01/30 04:23:26;;;;;;;10.80;6.60;;;;;;;-143.84;68.42;45144.28;5089011;28;20459;-73
2022/01/30 04:25:55;;;;;;;8.90;6.83;;;;;;;-143.84;68.60;45151.91;5088886;28;20471;-73
2022/01/30 04:28:22;;;;;;;8.10;6.90;;;;;;;-143.84;68.29;45163.31;5088184;28;20459;-73
2022/01/30 04:30:50;;;;;;;9.10;6.60;;;;;;;-143.84;68.29;45170.94;5088443;28;20451;-73
2022/01/30 04:33:18;;;;;;;8.13;6.67;;;;;;;-143.84;68.26;45180.47;5088826;28;20509;-73
2022/01/30 04:35:46;;;;;;;9.03;6.87;;;;;;;-143.84;68.43;45178.56;5089245;28;20446;-73
2022/01/30 04:38:19;;;;;;;8.50;5.73;;;;;;;-143.84;68.03;45144.28;5088499;28;20458;-73
2022/01/30 04:41:21;;;;;;;8.40;7.13;;;;;;;-143.84;68.22;45176.66;5085635;28;20851;-73
2022/01/30 04:57:59;;;;;;;11.60;6.70;;;;;;;-143.84;67.66;45172.84;5087306;28;20435;-73
2022/01/30 05:00:47;;;;;;;9.73;6.90;;;;;;;-143.84;67.79;45150.00;5084220;28;20825;-73
2022/01/30 05:03:29;;;;;;;9.67;6.93;;;;;;;-143.84;67.67;45193.78;5088611;28;20925;-73
2022/01/30 05:06:04;;;;;;;9.80;7.87;;;;;;;-143.84;68.09;45150.00;5088309;28;20448;-72
2022/01/30 05:08:31;;;;;;;9.80;7.57;;;;;;;-143.84;68.06;45186.16;5086647;28;20532;-74
2022/01/30 05:11:01;;;;;;;9.53;7.10;;;;;;;-143.84;68.23;45186.16;5087984;28;20451;-74
2022/01/30 05:13:32;;;;;;;12.43;7.37;;;;;;;-143.84;68.71;45138.56;5085635;28;20479;-73
2022/01/30 05:16:00;;;;;;;12.00;8.30;;;;;;;-143.84;68.56;45170.94;5086968;28;20481;-71
2022/01/30 05:18:29;;;;;;;9.40;8.30;;;;;;;-143.84;68.68;45146.19;5086638;28;20458;-71
2022/01/30 05:20:57;;;;;;;18.30;10.33;;;;;;;-143.84;68.86;45151.91;5088726;28;20440;-70
2022/01/30 05:23:25;;;;;;;22.23;16.60;;;;;;;-143.84;69.00;45167.13;5089135;28;20454;-71
2022/01/30 05:25:53;;;;;;;18.83;10.80;;;;;;;-143.84;69.24;45186.16;5091220;28;20497;-72
2022/01/30 05:28:24;;;;;;;16.27;8.57;;;;;;;-143.84;69.39;45167.13;5090542;28;20447;-70
2022/01/30 05:30:53;;;;;;;20.33;9.87;;;;;;;-143.84;69.29;45148.09;5090802;28;20440;-72
2022/01/30 05:33:21;;;;;;;12.43;9.43;;;;;;;-143.84;69.38;45189.97;5090761;28;20784;-72
2022/01/30 05:35:48;;;;;;;11.10;9.10;;;;;;;-143.84;69.17;45157.59;5089852;28;20480;-72
2022/01/30 05:38:16;;;;;;;11.93;7.87;;;;;;;-143.84;69.15;45205.22;5087862;28;20452;-76
2022/01/30 05:40:44;;;;;;;11.43;8.37;;;;;;;-143.84;69.09;45184.25;5088825;28;20458;-77
2022/01/30 05:43:12;;;;;;;14.70;9.00;;;;;;;-143.84;68.92;45148.09;5088181;28;20459;-76
2022/01/30 05:45:42;;;;;;;11.73;9.47;;;;;;;-143.84;69.00;45178.56;5088564;28;20460;-75
2022/01/30 05:48:15;;;;;;;17.17;10.40;;;;;;;-143.84;68.93;45155.69;5088138;28;20982;-76
2022/01/30 05:50:44;;;;;;;15.03;9.43;;;;;;;-143.84;69.13;45188.06;5089146;28;20460;-77
2022/01/30 05:53:12;;;;;;;17.10;12.23;;;;;;;-143.84;69.13;45167.13;5088478;28;20451;-75
2022/01/30 05:55:40;;;;;;;18.20;11.60;;;;;;;-143.84;68.91;45184.25;5088921;28;20479;-75
2022/01/30 05:58:08;;;;;;;19.13;11.50;;;;;;;-143.84;69.28;45159.50;5088131;28;20448;-74
2022/01/30 06:00:36;;;;;;;18.43;11.53;;;;;;;-143.84;69.46;45189.97;5090098;28;20463;-75
2022/01/30 06:03:03;;;;;;;19.23;12.90;;;;;;;-143.84;69.57;45184.25;5091116;28;20455;-76
2022/01/30 06:05:32;;;;;;;22.37;13.13;;;;;;;-143.84;70.17;45180.47;5093062;28;20452;-75
2022/01/30 06:08:10;;;;;;;19.67;12.80;;;;;;;-143.84;70.40;45184.25;5089753;28;20506;-75
2022/01/30 06:10:38;;;;;;;17.33;11.37;;;;;;;-143.84;70.14;45189.97;5093749;28;20502;-75
2022/01/30 06:13:05;;;;;;;20.13;12.27;;;;;;;-143.84;70.29;45178.56;5089418;28;20482;-75
2022/01/30 06:15:32;;;;;;;16.90;12.97;;;;;;;-143.84;70.29;45151.91;5091087;28;20491;-75
2022/01/30 06:17:59;;;;;;;19.77;12.70;;;;;;;-143.84;70.11;45169.03;5090541;28;20461;-71
2022/01/30 06:20:26;;;;;;;19.67;11.33;;;;;;;-143.84;69.95;45142.38;5089144;28;20440;-72
2022/01/30 06:22:55;;;;;;;21.90;13.63;;;;;;;-143.84;69.79;45167.13;5085501;28;20440;-72
2022/01/30 06:25:22;;;;;;;21.07;12.30;;;;;;;-143.84;69.28;45178.56;5089221;28;20981;-72
2022/01/30 06:27:50;;;;;;;14.40;11.03;;;;;;;-143.84;68.93;45178.56;5088576;28;21272;-71
2022/01/30 06:30:21;;;;;;;15.77;11.50;;;;;;;-143.84;68.61;45170.94;5089427;28;20449;-72
2022/01/30 06:32:50;;;;;;;18.37;12.90;;;;;;;-143.84;68.44;45189.97;5089378;28;20447;-72
2022/01/30 06:35:17;;;;;;;20.70;13.77;;;;;;;-143.84;68.07;45184.25;5088611;28;20519;-72
2022/01/30 06:37:44;;;;;;;21.70;13.20;;;;;;;-143.84;67.33;45178.56;5088360;28;20456;-72
2022/01/30 06:40:13;;;;;;;16.83;11.07;;;;;;;-143.84;66.44;45163.31;5089771;28;20448;-72
2022/01/30 06:42:41;;;;;;;16.40;11.63;;;;;;;-143.84;66.41;45153.81;5089395;28;20447;-73
2022/01/30 06:45:09;;;;;;;18.87;12.60;;;;;;;-143.84;66.13;45186.16;5090181;28;20964;-73
2022/01/30 06:47:41;;;;;;;19.80;14.20;;;;;;;-143.84;66.24;45174.75;5091157;28;20829;-73
2022/01/30 06:50:09;;;;;;;19.77;12.63;;;;;;;-143.84;65.90;45155.69;5090375;28;20497;-72
2022/01/30 06:52:37;;;;;;;19.97;12.23;;;;;;;-143.84;65.50;45129.03;5090712;28;20481;-73
2022/01/30 06:55:05;;;;;;;18.70;11.63;;;;;;;-143.84;65.20;45153.81;5089279;28;20475;-73
2022/01/30 06:57:34;;;;;;;17.00;11.53;;;;;;;-143.84;64.55;45151.91;5090073;28;20822;-72
2022/01/30 07:00:01;;;;;;;19.40;13.07;;;;;;;-143.84;63.90;45159.50;5089946;28;20452;-70
2022/01/30 07:02:28;;;;;;;13.43;10.13;;;;;;;-143.84;63.38;45165.22;5090062;28;20855;-70
2022/01/30 07:04:56;;;;;;;20.13;12.73;;;;;;;-143.84;63.76;45161.41;5089774;28;20443;-71
2022/01/30 07:07:24;;;;;;;24.40;11.13;;;;;;;-143.84;63.75;45151.91;5090037;28;20444;-71
2022/01/30 07:09:52;;;;;;;18.80;10.83;;;;;;;-143.84;63.16;45138.56;5090106;28;20510;-71
2022/01/30 07:12:19;;;;;;;13.00;8.87;;;;;;;-143.84;63.48;45148.09;5089514;28;20446;-71
2022/01/30 07:14:47;;;;;;;19.77;11.83;;;;;;;-143.84;63.04;45144.28;5089799;28;20483;-71
2022/01/30 07:17:15;;;;;;;20.73;11.83;;;;;;;-143.84;62.80;45138.56;5086619;28;20436;-71
2022/01/30 07:19:42;;;;;;;16.07;9.70;;;;;;;-143.84;62.82;45136.66;5090274;28;20440;-73
2022/01/30 07:22:09;;;;;;;16.43;9.47;;;;;;;-143.84;62.38;45136.66;5089777;28;20455;-71
2022/01/30 07:24:36;;;;;;;17.60;10.87;;;;;;;-143.84;62.11;45140.47;5089884;28;20473;-73
2022/01/30 07:27:04;;;;;;;12.97;9.23;;;;;;;-143.84;62.34;45186.16;5088682;28;20456;-72
2022/01/30 07:29:31;;;;;;;15.23;9.53;;;;;;;-143.84;61.18;45144.28;5089602;28;20449;-72
2022/01/30 07:31:59;;;;;;;14.90;7.80;;;;;;;-143.84;60.51;45161.41;5088636;28;20945;-73
2022/01/30 07:34:26;;;;;;;12.70;9.63;;;;;;;-143.84;61.01;45144.28;5088274;28;20467;-72
2022/01/30 07:36:57;;;;;;;18.60;10.93;;;;;;;-143.84;60.59;45129.03;5088416;28;20456;-72
2022/01/30 07:39:28;;;;;;;20.97;10.93;;;;;;;-143.84;60.69;45169.03;5088550;28;20978;-71
2022/01/30 07:41:55;;;;;;;20.40;11.90;;;;;;;-143.84;60.90;45140.47;5088164;28;20456;-75
2022/01/30 07:44:22;;;;;;;15.30;9.37;;;;;;;-143.84;60.58;45144.28;5088474;28;20436;-74
2022/01/30 07:46:49;;;;;;;17.57;11.33;;;;;;;-143.84;61.18;45167.13;5087670;28;20467;-73
2022/01/30 07:49:18;;;;;;;17.30;11.20;;;;;;;-143.84;60.28;45134.75;5088845;28;20815;-70
2022/01/30 07:51:45;;;;;;;12.77;9.70;;;;;;;-143.84;59.09;45176.66;5088636;28;21088;-73
2022/01/30 07:54:12;;;;;;;14.50;9.23;;;;;;;-143.84;57.71;45130.94;5089203;28;20463;-70
2022/01/30 07:56:40;;;;;;;11.33;8.10;;;;;;;-143.84;57.13;45150.00;5089132;28;20514;-75
2022/01/30 07:59:07;;;;;;;19.63;9.00;;;;;;;-143.84;56.45;45146.19;5089108;28;20455;-71
2022/01/30 08:01:34;;;;;;;21.53;8.33;;;;;;;-143.84;56.36;45159.50;5089121;28;20454;-73
2022/01/30 08:04:01;;;;;;;21.70;8.50;;;;;;;-143.84;54.38;45144.28;5089224;28;20941;-72
2022/01/30 08:06:30;;;;;;;13.57;9.10;;;;;;;-143.84;54.86;45130.94;5089392;28;21041;-77
2022/01/30 08:08:57;;;;;;;12.80;8.67;;;;;;;-143.84;54.50;45148.09;5087291;28;20478;-74
2022/01/30 08:11:24;;;;;;;12.97;7.87;;;;;;;-143.84;53.89;45108.09;5088795;28;20452;-74
2022/01/30 08:13:52;;;;;;;13.13;8.30;;;;;;;-143.84;54.72;45130.94;5087591;28;20545;-71
2022/01/30 08:16:20;;;;;;;23.10;9.97;;;;;;;-143.84;54.27;45153.81;5087510;28;20545;-74
2022/01/30 08:18:47;;;;;;;11.70;8.63;;;;;;;-143.84;54.42;45140.47;5086874;28;20451;-73
2022/01/30 08:21:14;;;;;;;17.23;9.70;;;;;;;-143.84;54.99;45144.28;5088474;28;20831;-74
2022/01/30 08:23:43;;;;;;;17.20;10.73;;;;;;;-143.84;56.40;45150.00;5087903;28;20455;-75
2022/01/30 08:26:10;;;;;;;21.27;11.47;;;;;;;-143.84;57.32;45138.56;5087846;28;20448;-74
2022/01/30 08:28:38;;;;;;;20.47;11.63;;;;;;;-143.84;57.00;45155.69;5087837;28;20436;-74
2022/01/30 08:31:05;;;;;;;17.37;10.40;;;;;;;-143.84;57.21;45136.66;5088153;28;20944;-75
2022/01/30 08:33:32;;;;;;;15.77;10.60;;;;;;;-143.84;57.50;45136.66;5087870;28;20444;-73
2022/01/30 08:35:59;;;;;;;14.80;9.03;;;;;;;-143.84;57.28;45130.94;5087808;28;21008;-73
2022/01/30 08:38:26;;;;;;;15.90;10.97;;;;;;;-143.84;57.44;45123.34;5087856;28;20460;-75
2022/01/30 08:40:55;;;;;;;19.30;10.40;;;;;;;-143.84;56.91;45138.56;5087133;28;20440;-72
2022/01/30 08:43:22;;;;;;;17.23;9.17;;;;;;;-143.84;57.43;45113.81;5087329;28;20464;-74
2022/01/30 08:45:51;;;;;;;15.83;11.10;;;;;;;-143.84;57.36;45136.66;5086928;28;20451;-73
2022/01/30 08:48:19;;;;;;;13.37;10.07;;;;;;;-143.84;57.35;45129.03;5087606;28;20451;-75
2022/01/30 08:50:46;;;;;;;14.13;9.40;;;;;;;-143.84;57.41;45151.91;5088700;28;20451;-72
2022/01/30 08:53:15;;;;;;;15.70;9.07;;;;;;;-143.84;55.91;45140.47;5088412;28;20446;-72
2022/01/30 08:55:42;;;;;;;13.20;8.23;;;;;;;-143.84;56.18;45146.19;5087429;28;20483;-73
2022/01/30 08:58:10;;;;;;;9.33;7.77;;;;;;;-143.84;56.40;45138.56;5087582;28;20504;-71
2022/01/30 09:00:41;;;;;;;10.20;8.60;;;;;;;-143.84;56.19;45157.59;5087825;28;20440;-71
2022/01/30 09:03:08;;;;;;;14.43;8.50;;;;;;;-143.84;56.25;45142.38;5086535;28;20443;-70
2022/01/30 09:05:36;;;;;;;17.83;11.10;;;;;;;-143.84;55.94;45142.38;5087981;28;20485;-71
2022/01/30 09:08:05;;;;;;;12.30;8.90;;;;;;;-143.84;55.43;45144.28;5087597;28;20456;-70
2022/01/30 09:10:32;;;;;;;17.93;10.43;;;;;;;-143.84;55.33;45138.56;5087627;28;20452;-70
2022/01/30 09:12:59;;;;;;;19.50;9.70;;;;;;;-143.84;54.90;45140.47;5087348;28;20487;-71
2022/01/30 09:15:28;;;;;;;12.37;9.37;;;;;;;-143.84;55.09;45130.94;5087441;28;20491;-71
2022/01/30 09:17:57;;;;;;;12.57;9.07;;;;;;;-143.84;54.98;45140.47;5087226;28;20452;-70
2022/01/30 09:20:25;;;;;;;12.47;8.60;;;;;;;-143.84;54.56;45115.72;5087678;28;20444;-71
2022/01/30 09:22:53;;;;;;;15.83;8.80;;;;;;;-143.84;54.94;45144.28;5087637;28;20436;-72
2022/01/30 09:25:21;;;;;;;12.20;8.87;;;;;;;-143.84;54.83;45136.66;5084166;28;20476;-71
2022/01/30 09:27:48;;;;;;;11.33;8.17;;;;;;;-143.84;54.63;45151.91;5086957;28;20542;-72
2022/01/30 09:30:15;;;;;;;15.93;8.73;;;;;;;-143.84;54.75;45161.41;5087633;28;20542;-70
2022/01/30 09:32:44;;;;;;;9.07;6.50;;;;;;;-143.84;53.97;45153.81;5087215;28;20451;-73
2022/01/30 09:35:12;;;;;;;10.10;7.20;;;;;;;-143.84;53.54;45140.47;5089000;28;20558;-72
2022/01/30 09:37:39;;;;;;;18.93;8.87;;;;;;;-143.84;53.14;45153.81;5090901;28;20515;-72
2022/01/30 09:40:09;;;;;;;10.53;7.40;;;;;;;-143.84;52.96;45138.56;5090825;28;21270;-72
2022/01/30 09:42:37;;;;;;;9.30;6.93;;;;;;;-143.84;54.84;45108.09;5090822;28;20447;-70
2022/01/30 09:45:05;;;;;;;16.90;6.30;;;;;;;-143.84;59.75;45144.28;5090671;28;20984;-70
2022/01/30 09:47:34;;;;;;;8.47;6.53;;;;;;;-143.84;61.86;45142.38;5091100;28;20452;-70
2022/01/30 09:50:05;;;;;;;12.23;7.73;;;;;;;-143.84;64.54;45150.00;5091127;28;20450;-70
2022/01/30 09:52:32;;;;;;;13.80;8.50;;;;;;;-143.84;67.78;45140.47;5088772;28;20461;-71
2022/01/30 09:55:00;;;;;;;8.60;7.60;;;;;;;-143.84;71.86;45148.09;5091338;28;20454;-71
2022/01/30 09:57:27;;;;;;;10.93;6.63;;;;;;;-143.84;74.26;45150.00;5090790;28;20444;-71
2022/01/30 09:59:56;;;;;;;9.37;6.43;;;;;;;-143.84;76.59;45172.84;5090619;28;20457;-70
2022/01/30 10:02:26;;;;;;;11.70;7.27;;;;;;;-143.84;77.89;45157.59;5090283;28;20978;-71
2022/01/30 10:04:54;;;;;;;11.43;7.47;;;;;;;-143.84;78.85;45142.38;5090561;28;20478;-72
2022/01/30 10:07:26;;;;;;;10.87;7.67;;;;;;;-143.84;80.13;45134.75;5090334;28;20456;-71
2022/01/30 10:10:08;;;;;;;9.30;7.17;;;;;;;-143.84;80.16;45138.56;5088649;28;20446;-71
2022/01/30 10:12:35;;;;;;;8.07;6.70;;;;;;;-143.84;81.03;45134.75;5089166;28;20922;-72
2022/01/30 10:15:05;;;;;;;14.83;7.00;;;;;;;-143.84;81.05;45132.84;5088962;28;20444;-70
2022/01/30 10:17:35;;;;;;;9.83;6.53;;;;;;;-143.84;81.80;45136.66;5090379;28;20464;-71
2022/01/30 10:20:09;;;;;;;9.70;6.00;;;;;;;-143.84;82.75;45163.31;5089882;28;20486;-72
2022/01/30 10:22:49;;;;;;;6.50;5.80;;;;;;;-143.84;83.50;45117.63;5090127;28;20451;-71
2022/01/30 10:25:21;;;;;;;9.63;6.30;;;;;;;-143.84;84.61;45110.00;5089829;28;20845;-71
2022/01/30 10:27:49;;;;;;;5.17;4.67;;;;;;;-143.84;86.02;45110.00;5088779;28;20831;-72
2022/01/30 10:30:22;;;;;;;9.90;6.00;;;;;;;-143.84;86.57;45129.03;5091105;28;20937;-74
2022/01/30 10:32:57;;;;;;;8.00;5.83;;;;;;;-143.84;87.85;45070.00;5088585;28;20482;-72
2022/01/30 10:35:26;;;;;;;7.77;5.77;;;;;;;-143.84;88.65;45054.78;5088857;28;20444;-72
2022/01/30 10:37:55;;;;;;;8.17;6.00;;;;;;;-143.84;89.68;44978.63;5089815;28;20915;-73
2022/01/30 10:40:35;;;;;;;9.17;5.97;;;;;;;-143.84;90.69;44894.84;5089305;28;20467;-73
2022/01/30 10:43:02;;;;;;;10.10;6.27;;;;;;;-143.84;91.24;44761.56;5089542;28;20455;-72
2022/01/30 10:45:31;;;;;;;12.40;7.00;;;;;;;-143.84;91.69;44664.44;5089504;28;20447;-72
2022/01/30 10:48:13;;;;;;;9.23;6.90;;;;;;;-143.84;92.80;44434.09;5089848;28;20459;-70
2022/01/30 10:50:44;;;;;;;15.97;9.60;;;;;;;-143.84;93.29;44186.59;5089503;28;20487;-72
2022/01/30 10:53:20;;;;;;;11.50;8.93;;;;;;;-143.84;93.70;44015.25;5090359;28;20445;-72
2022/01/30 10:55:48;;;;;;;18.87;11.17;;;;;;;-143.84;94.08;43929.59;5089328;28;20471;-72
2022/01/30 10:58:17;;;;;;;14.00;10.30;;;;;;;-143.84;94.14;43849.66;5090365;28;20542;-71
2022/01/30 11:00:50;;;;;;;18.40;12.23;;;;;;;-143.84;94.40;43823.00;5089538;28;20447;-72
2022/01/30 11:03:36;;;;;;;18.70;12.33;;;;;;;-143.84;94.91;43781.13;5090388;28;20454;-72
2022/01/30 11:06:06;;;;;;;19.40;12.87;;;;;;;-143.84;95.22;43794.47;5089228;28;20459;-73
2022/01/30 11:08:38;;;;;;;21.67;13.00;;;;;;;-143.84;95.67;43826.81;5090513;28;20559;-73
2022/01/30 11:11:14;;;;;;;25.40;14.10;;;;;;;-143.84;95.92;43792.56;5087203;28;20462;-74
2022/01/30 11:14:01;;;;;;;28.67;15.27;;;;;;;-143.84;95.81;43773.53;5088356;28;20493;-73
2022/01/30 11:19:15;;;;;;;26.13;16.27;;;;;;;-143.84;96.07;43788.75;5087672;28;20481;-73
2022/01/30 11:21:43;;;;;;;22.43;13.73;;;;;;;-143.84;95.57;43792.56;5088740;28;20448;-73
2022/01/30 11:24:14;;;;;;;18.30;14.40;;;;;;;-143.84;95.76;43779.22;5088751;28;20451;-72
2022/01/30 11:26:42;;;;;;;25.07;17.20;;;;;;;-143.84;95.17;43796.34;5089041;28;20455;-74
2022/01/30 11:29:11;;;;;;;18.97;13.97;;;;;;;-143.84;94.88;43794.47;5089277;28;20464;-75
2022/01/30 11:31:38;;;;;;;19.17;14.63;;;;;;;-143.84;94.87;43779.22;5087373;28;20453;-74
2022/01/30 11:34:07;;;;;;;25.83;13.40;;;;;;;-143.84;94.97;43794.47;5088003;28;20494;-75
2022/01/30 11:36:36;;;;;;;24.13;14.40;;;;;;;-143.84;94.88;43788.75;5089387;28;21263;-74
2022/01/30 11:39:04;;;;;;;20.30;13.90;;;;;;;-143.84;94.44;43794.47;5088634;28;20445;-75
2022/01/30 11:41:34;;;;;;;23.30;13.60;;;;;;;-143.84;93.59;43830.63;5089198;28;20456;-74
2022/01/30 11:44:30;;;;;;;19.53;14.13;;;;;;;-143.84;93.45;43952.44;5088900;28;20452;-75
2022/01/30 11:47:23;;;;;;;18.87;13.37;;;;;;;-143.84;93.69;43931.50;5088195;28;20540;-73
2022/01/30 11:50:04;;;;;;;18.80;13.93;;;;;;;-143.84;93.08;43933.41;5087797;28;20471;-74
2022/01/30 11:52:48;;;;;;;19.93;14.00;;;;;;;-143.84;92.99;44059.03;5088553;28;20452;-73
2022/01/30 11:55:48;;;;;;;22.10;12.67;;;;;;;-143.84;93.06;44062.84;5086543;28;20469;-74
2022/01/30 11:58:49;;;;;;;23.07;13.27;;;;;;;-143.84;92.49;44135.19;5088046;28;20473;-74
2022/01/30 12:01:39;;;;;;;21.00;13.17;;;;;;;-143.84;92.37;44338.88;5088610;28;20474;-72